createdAt,value
2024-01-08T00:02:14.525Z,100763.13
2024-01-08T00:05:03.114Z,100765.06
2024-01-08T00:07:51.958Z,100767.56
2024-01-08T00:10:41.929Z,100759.22
2024-01-08T00:13:30.446Z,100757.06
2024-01-08T00:16:19.150Z,100769.25
2024-01-08T00:19:07.770Z,100767.72
2024-01-08T00:21:56.376Z,100745.16
2024-01-08T00:24:44.961Z,100772.97
2024-01-08T00:27:35.188Z,100772.38
2024-01-08T00:30:23.783Z,100767.81
2024-01-08T00:33:12.344Z,100770.09
2024-01-08T00:36:00.879Z,100765.53
2024-01-08T00:38:49.430Z,100777.66
2024-01-08T00:41:38.083Z,100755.97
2024-01-08T00:44:28.112Z,100759.19
2024-01-08T00:47:16.672Z,100758.34
2024-01-08T00:50:06.304Z,100765.41
2024-01-08T00:52:54.914Z,100759.22
2024-01-08T00:55:43.502Z,100755.84
2024-01-08T00:58:32.078Z,100761.47
2024-01-08T01:01:21.927Z,100757.16
2024-01-08T01:04:10.571Z,100760.63
2024-01-08T01:06:59.778Z,100764.47
2024-01-08T01:09:48.335Z,100709.38
2024-01-08T01:12:36.935Z,100763.28
2024-01-08T01:15:25.450Z,100766.59
2024-01-08T01:18:15.491Z,100766.84
2024-01-08T01:21:04.345Z,100767.81
2024-01-08T01:23:53.175Z,100760.16
2024-01-08T01:26:41.916Z,100765.19
2024-01-08T01:29:30.799Z,100767.69
2024-01-08T01:32:19.489Z,100762.19
2024-01-08T01:35:10.258Z,100737.88
2024-01-08T01:37:59.702Z,100780.16
2024-01-08T01:40:48.694Z,100780.78
2024-01-08T01:43:37.271Z,100773.44
2024-01-08T01:46:38.462Z,100771.66
2024-01-08T01:49:27.247Z,100775.81
2024-01-08T01:52:17.136Z,100763.97
2024-01-08T01:55:06.698Z,100763.81
2024-01-08T01:57:55.438Z,100769.72
2024-01-08T02:00:44.275Z,100761.41
2024-01-08T02:03:33.658Z,100765.41
2024-01-08T02:06:23.953Z,100771.53
2024-01-08T02:09:14.781Z,100770.78
2024-01-08T02:12:03.356Z,100767.22
2024-01-08T02:14:51.999Z,100763.13
2024-01-08T02:17:40.691Z,100749.94
2024-01-08T02:20:29.406Z,100764.66
2024-01-08T02:23:19.669Z,100765.41
2024-01-08T02:26:08.726Z,100758.66
2024-01-08T02:28:57.428Z,100755.09
2024-01-08T02:31:45.947Z,100751.09
2024-01-08T02:34:34.855Z,100745.94
2024-01-08T02:37:24.659Z,100740.91
2024-01-08T02:40:15.142Z,100731.03
2024-01-08T02:43:03.798Z,100728.09
2024-01-08T02:45:52.505Z,100738.03
2024-01-08T02:48:41.125Z,100739.22
2024-01-08T02:51:29.999Z,100744.84
2024-01-08T02:54:18.766Z,100737.91
2024-01-08T02:57:08.674Z,100742.22
2024-01-08T02:59:58.548Z,100730.63
2024-01-08T03:02:48.336Z,100752.16
2024-01-08T03:05:36.921Z,100750.72
2024-01-08T03:08:25.521Z,100755.41
2024-01-08T03:11:14.152Z,100758.97
2024-01-08T03:14:04.211Z,100761.75
2024-01-08T03:16:52.952Z,100754.34
2024-01-08T03:19:41.510Z,100756.59
2024-01-08T03:22:30.711Z,100743.78
2024-01-08T03:25:19.655Z,100761.00
2024-01-08T03:28:08.167Z,100752.75
2024-01-08T03:30:58.136Z,100745.41
2024-01-08T03:33:46.789Z,100758.72
2024-01-08T03:36:35.684Z,100737.75
2024-01-08T03:39:24.176Z,100751.53
2024-01-08T03:42:12.654Z,100751.59
2024-01-08T03:45:01.340Z,100750.50
2024-01-08T03:47:51.521Z,100752.91
2024-01-08T03:50:40.225Z,100740.56
2024-01-08T03:53:28.844Z,100751.84
2024-01-08T03:56:17.466Z,100721.16
2024-01-08T03:59:06.081Z,100743.25
2024-01-08T04:01:55.265Z,100720.56
2024-01-08T04:04:45.288Z,100754.34
2024-01-08T04:07:33.815Z,100757.19
2024-01-08T04:10:22.401Z,100755.41
2024-01-08T04:13:11.013Z,100753.56
2024-01-08T04:15:59.599Z,100757.19
2024-01-08T04:18:48.250Z,100756.00
2024-01-08T04:21:38.165Z,100762.28
2024-01-08T04:24:26.721Z,100762.16
2024-01-08T04:27:15.253Z,100763.31
2024-01-08T04:30:03.993Z,100758.06
2024-01-08T04:32:52.635Z,100766.81
2024-01-08T04:35:41.302Z,100766.56
2024-01-08T04:38:31.326Z,100770.19
2024-01-08T04:41:21.348Z,100770.88
2024-01-08T04:44:11.058Z,100767.78
2024-01-08T04:46:59.727Z,100760.94
2024-01-08T04:49:48.287Z,100766.34
2024-01-08T04:52:36.814Z,100777.38
2024-01-08T04:55:26.718Z,100759.66
2024-01-08T04:58:15.268Z,100768.63
2024-01-08T05:01:03.948Z,100758.22
2024-01-08T05:03:52.984Z,100768.63
2024-01-08T05:06:41.750Z,100773.31
2024-01-08T05:09:31.150Z,100777.78
2024-01-08T05:12:21.101Z,100775.59
2024-01-08T05:15:10.570Z,100784.22
2024-01-08T05:17:59.285Z,100781.34
2024-01-08T05:20:47.906Z,100779.31
2024-01-08T05:23:36.615Z,100779.44
2024-01-08T05:26:25.300Z,100783.03
2024-01-08T05:29:15.285Z,100788.56
2024-01-08T05:32:04.642Z,100786.03
2024-01-08T05:34:53.213Z,100787.47
2024-01-08T05:37:41.815Z,100788.94
2024-01-08T05:40:30.363Z,100788.31
2024-01-08T05:43:19.298Z,100792.63
2024-01-08T05:46:09.966Z,100779.91
2024-01-08T05:48:58.598Z,100798.47
2024-01-08T05:51:48.180Z,100797.06
2024-01-08T05:54:38.493Z,100800.28
2024-01-08T05:57:27.016Z,100804.47
2024-01-08T06:00:17.078Z,100809.53
2024-01-08T06:03:07.168Z,100810.00
2024-01-08T06:05:56.038Z,100810.25
2024-01-08T06:08:44.829Z,100803.78
2024-01-08T06:11:33.546Z,100815.75
2024-01-08T06:14:22.196Z,100811.22
2024-01-08T06:17:12.039Z,100813.50
2024-01-08T06:20:02.065Z,100805.81
2024-01-08T06:22:51.334Z,100810.63
2024-01-08T06:25:39.951Z,100810.75
2024-01-08T06:28:28.544Z,100809.69
2024-01-08T06:31:17.152Z,100798.13
2024-01-08T06:34:05.830Z,100805.34
2024-01-08T06:36:55.762Z,100799.13
2024-01-08T06:39:44.275Z,100801.41
2024-01-08T06:42:46.910Z,100806.31
2024-01-08T06:45:41.289Z,100801.16
2024-01-08T06:48:30.271Z,100803.91
2024-01-08T06:51:20.468Z,100780.78
2024-01-08T06:54:10.369Z,100813.59
2024-01-08T06:56:58.924Z,100824.88
2024-01-08T06:59:48.826Z,100817.31
2024-01-08T07:02:39.312Z,100818.53
2024-01-08T07:05:28.076Z,100815.06
2024-01-08T07:08:16.865Z,100812.53
2024-01-08T07:11:07.009Z,100812.41
2024-01-08T07:13:56.085Z,100815.28
2024-01-08T07:16:44.767Z,100820.94
2024-01-08T07:19:33.362Z,100719.19
2024-01-08T07:22:22.215Z,100719.56
2024-01-08T07:25:10.752Z,100838.78
2024-01-08T07:28:00.951Z,100834.38
2024-01-08T07:30:49.492Z,100837.22
2024-01-08T07:33:38.442Z,100843.22
2024-01-08T07:36:27.168Z,100845.63
2024-01-08T07:39:15.900Z,100845.03
2024-01-08T07:42:04.681Z,100836.28
2024-01-08T07:44:54.535Z,100842.13
2024-01-08T07:47:43.170Z,100838.56
2024-01-08T07:50:31.920Z,100838.69
2024-01-08T07:53:20.558Z,100852.00
2024-01-08T07:56:09.143Z,100847.88
2024-01-08T07:58:57.722Z,100843.69
2024-01-08T08:01:47.830Z,100853.41
2024-01-08T08:04:36.446Z,100853.63
2024-01-08T08:07:25.354Z,100850.53
2024-01-08T08:10:14.054Z,100849.72
2024-01-08T08:13:02.662Z,100850.06
2024-01-08T08:15:51.251Z,100851.72
2024-01-08T08:18:41.418Z,100869.72
2024-01-08T08:21:31.447Z,100869.59
2024-01-08T08:24:20.034Z,100866.38
2024-01-08T08:27:10.765Z,100790.34
2024-01-08T08:29:59.657Z,100751.41
2024-01-08T08:32:49.656Z,100871.03
2024-01-08T08:35:39.840Z,100877.25
2024-01-08T08:38:28.423Z,100885.44
2024-01-08T08:41:17.463Z,100878.38
2024-01-08T08:44:06.679Z,100848.50
2024-01-08T08:46:55.281Z,100886.38
2024-01-08T08:49:44.013Z,100881.47
2024-01-08T08:52:34.196Z,100877.03
2024-01-08T08:55:22.870Z,100883.63
2024-01-08T08:58:11.455Z,100882.19
2024-01-08T09:01:00.071Z,100891.69
2024-01-08T09:03:48.556Z,100886.03
2024-01-08T09:06:39.380Z,100892.63
2024-01-08T09:09:32.180Z,100898.50
2024-01-08T09:12:20.859Z,100904.03
2024-01-08T09:15:10.280Z,100906.38
2024-01-08T09:17:58.929Z,100905.69
2024-01-08T09:20:50.067Z,100898.75
2024-01-08T09:23:41.033Z,100913.38
2024-01-08T09:26:31.036Z,100907.72
2024-01-08T09:29:20.721Z,100913.22
2024-01-08T09:32:12.075Z,100913.34
2024-01-08T09:35:01.121Z,100891.25
2024-01-08T09:37:50.054Z,100920.44
2024-01-08T09:40:38.787Z,100918.41
2024-01-08T09:43:29.616Z,100924.72
2024-01-08T09:46:25.886Z,100924.38
2024-01-08T09:49:15.945Z,100923.69
2024-01-08T09:52:05.228Z,100877.97
2024-01-08T09:54:53.814Z,100933.63
2024-01-08T09:57:44.004Z,100928.50
2024-01-08T10:00:34.380Z,100933.75
2024-01-08T10:03:23.317Z,100936.84
2024-01-08T10:06:12.600Z,100933.56
2024-01-08T10:09:12.776Z,100930.47
2024-01-08T10:12:01.601Z,100936.94
2024-01-08T10:14:50.160Z,100946.50
2024-01-08T10:17:41.530Z,100935.22
2024-01-08T10:20:31.550Z,100928.22
2024-01-08T10:23:26.829Z,100935.47
2024-01-08T10:26:17.859Z,100933.22
2024-01-08T10:29:06.755Z,100933.38
2024-01-08T10:31:56.388Z,100938.09
2024-01-08T10:34:47.400Z,100927.16
2024-01-08T10:37:36.857Z,100924.06
2024-01-08T10:40:27.704Z,100938.47
2024-01-08T10:43:16.173Z,100947.31
2024-01-08T10:46:05.734Z,100923.59
2024-01-08T10:48:54.593Z,100934.34
2024-01-08T10:51:45.981Z,100942.59
2024-01-08T10:54:41.387Z,100938.28
2024-01-08T10:57:36.708Z,100944.28
2024-01-08T11:00:25.518Z,100944.03
2024-01-08T11:03:15.037Z,100938.84
2024-01-08T11:06:06.000Z,100936.41
2024-01-08T11:08:57.856Z,100937.34
2024-01-08T11:11:46.917Z,100945.16
2024-01-08T11:14:35.672Z,100943.25
2024-01-08T11:17:24.261Z,100943.38
2024-01-08T11:20:42.527Z,100930.31
2024-01-08T11:23:40.625Z,100925.38
2024-01-08T11:26:31.074Z,100926.44
2024-01-08T11:29:20.230Z,100928.69
2024-01-08T11:32:57.625Z,100943.16
2024-01-08T11:35:53.112Z,100928.66
2024-01-08T11:38:42.457Z,100932.81
2024-01-08T11:41:36.530Z,100932.19
2024-01-08T11:44:27.713Z,100932.81
2024-01-08T11:47:16.301Z,100927.34
2024-01-08T11:50:07.859Z,100925.34
2024-01-08T11:52:59.288Z,100939.34
2024-01-08T11:55:48.888Z,100918.84
2024-01-08T11:58:41.377Z,100933.09
2024-01-08T12:01:31.404Z,100927.69
2024-01-08T12:04:20.003Z,100930.22
2024-01-08T12:07:13.154Z,100853.53
2024-01-08T12:10:07.824Z,100926.94
2024-01-08T12:12:58.413Z,100938.47
2024-01-08T12:15:51.566Z,100939.88
2024-01-08T12:18:40.351Z,100935.50
2024-01-08T12:21:36.854Z,100931.78
2024-01-08T12:24:32.015Z,100938.38
2024-01-08T12:27:21.711Z,100928.50
2024-01-08T12:30:13.112Z,100937.25
2024-01-08T12:33:03.184Z,100943.16
2024-01-08T12:35:54.427Z,100846.59
2024-01-08T12:38:44.125Z,100936.28
2024-01-08T12:41:33.355Z,100938.53
2024-01-08T12:44:25.787Z,100933.28
2024-01-08T12:47:14.570Z,100942.50
2024-01-08T12:50:07.724Z,100933.09
2024-01-08T12:52:58.916Z,100907.06
2024-01-08T12:55:48.867Z,100912.69
2024-01-08T12:58:37.611Z,100936.50
2024-01-08T13:01:30.853Z,100936.69
2024-01-08T13:04:21.086Z,100936.41
2024-01-08T13:07:11.137Z,100932.94
2024-01-08T13:09:59.773Z,100938.25
2024-01-08T13:12:49.552Z,100944.94
2024-01-08T13:15:38.081Z,100933.66
2024-01-08T13:18:26.669Z,100935.50
2024-01-08T13:21:17.788Z,100939.69
2024-01-08T13:24:09.359Z,100940.28
2024-01-08T13:27:00.997Z,100941.41
2024-01-08T13:29:49.630Z,100940.19
2024-01-08T13:32:38.357Z,100959.44
2024-01-08T13:35:29.898Z,100942.19
2024-01-08T13:38:18.544Z,100946.81
2024-01-08T13:41:12.828Z,100942.09
2024-01-08T13:44:02.869Z,100960.31
2024-01-08T13:46:54.050Z,100956.34
2024-01-08T13:49:43.143Z,100954.34
2024-01-08T13:52:31.775Z,100960.16
2024-01-08T13:55:21.482Z,100951.81
2024-01-08T13:58:11.957Z,100936.84
2024-01-08T14:01:00.727Z,100958.84
2024-01-08T14:03:49.359Z,100970.38
2024-01-08T14:06:38.159Z,100968.06
2024-01-08T14:09:26.836Z,100972.59
2024-01-08T14:12:15.506Z,100971.72
2024-01-08T14:15:07.271Z,100975.78
2024-01-08T14:17:58.256Z,100970.03
2024-01-08T14:20:47.298Z,100979.50
2024-01-08T14:23:35.927Z,100977.66
2024-01-08T14:26:24.499Z,100963.69
2024-01-08T14:29:13.142Z,100973.91
2024-01-08T14:32:03.134Z,100984.72
2024-01-08T14:34:51.842Z,100990.09
2024-01-08T14:37:41.364Z,100987.44
2024-01-08T14:40:30.189Z,100983.53
2024-01-08T14:43:19.092Z,100981.06
2024-01-08T14:46:08.865Z,100983.97
2024-01-08T14:48:59.058Z,100987.78
2024-01-08T14:51:47.675Z,100993.91
2024-01-08T14:54:36.319Z,100988.63
2024-01-08T14:57:27.162Z,101000.66
2024-01-08T15:00:16.013Z,101000.97
2024-01-08T15:03:05.279Z,101001.91
2024-01-08T15:05:55.319Z,101008.44
2024-01-08T15:08:44.255Z,100999.94
2024-01-08T15:11:33.123Z,100995.00
2024-01-08T15:14:24.379Z,101010.34
2024-01-08T15:17:14.212Z,101004.03
2024-01-08T15:20:04.200Z,101006.97
2024-01-08T15:22:56.555Z,101027.19
2024-01-08T15:25:47.820Z,101031.00
2024-01-08T15:28:38.608Z,101020.47
2024-01-08T15:31:27.447Z,101033.53
2024-01-08T15:34:16.091Z,101030.66
2024-01-08T15:37:04.755Z,101037.94
2024-01-08T15:39:54.673Z,101034.97
2024-01-08T15:42:43.301Z,101036.97
2024-01-08T15:45:32.615Z,101033.19
2024-01-08T15:48:21.472Z,101032.03
2024-01-08T15:51:10.224Z,101034.75
2024-01-08T15:53:58.729Z,101031.22
2024-01-08T15:56:48.665Z,101034.66
2024-01-08T15:59:39.303Z,101043.81
2024-01-08T16:02:28.637Z,101043.28
2024-01-08T16:05:17.358Z,101054.97
2024-01-08T16:08:07.136Z,101053.09
2024-01-08T16:10:55.674Z,101061.81
2024-01-08T16:13:47.160Z,101053.69
2024-01-08T16:16:35.777Z,101059.94
2024-01-08T16:19:24.470Z,101067.06
2024-01-08T16:22:13.397Z,101064.44
2024-01-08T16:25:01.939Z,101067.59
2024-01-08T16:27:50.568Z,101078.97
2024-01-08T16:30:40.497Z,101075.47
2024-01-08T16:33:29.297Z,101084.00
2024-01-08T16:36:17.996Z,101084.63
2024-01-08T16:39:07.073Z,101094.44
2024-01-08T16:41:55.635Z,101093.47
2024-01-08T16:44:44.341Z,101098.13
2024-01-08T16:47:45.281Z,101096.97
2024-01-08T16:50:42.384Z,101065.41
2024-01-08T16:53:32.219Z,101109.50
2024-01-08T16:56:20.855Z,101106.88
2024-01-08T16:59:09.948Z,101116.25
2024-01-08T17:01:58.597Z,101115.78
2024-01-08T17:04:48.558Z,101110.53
2024-01-08T17:07:37.120Z,101125.75
2024-01-08T17:10:25.725Z,101115.84
2024-01-08T17:13:14.247Z,101128.84
2024-01-08T17:16:02.767Z,101135.31
2024-01-08T17:18:51.407Z,101127.72
2024-01-08T17:21:41.531Z,101137.53
2024-01-08T17:24:30.078Z,101136.75
2024-01-08T17:27:19.551Z,101149.41
2024-01-08T17:30:09.375Z,101147.28
2024-01-08T17:33:00.288Z,101146.22
2024-01-08T17:35:49.117Z,101151.34
2024-01-08T17:38:39.139Z,101151.66
2024-01-08T17:41:29.789Z,101146.78
2024-01-08T17:44:18.493Z,101154.94
2024-01-08T17:47:07.235Z,101111.75
2024-01-08T17:49:55.754Z,101141.91
2024-01-08T17:52:47.375Z,101147.00
2024-01-08T17:55:37.257Z,101139.25
2024-01-08T17:58:29.045Z,101148.81
2024-01-08T18:01:18.652Z,101150.34
2024-01-08T18:04:07.885Z,101146.47
2024-01-08T18:06:59.485Z,101149.38
2024-01-08T18:09:48.138Z,101155.03
2024-01-08T18:12:43.574Z,101158.50
2024-01-08T18:15:32.646Z,101155.59
2024-01-08T18:18:23.279Z,101154.81
2024-01-08T18:21:11.984Z,101162.22
2024-01-08T18:24:00.561Z,101161.13
2024-01-08T18:26:49.285Z,101160.28
2024-01-08T18:29:39.462Z,101172.38
2024-01-08T18:32:28.118Z,101179.91
2024-01-08T18:35:17.016Z,101182.63
2024-01-08T18:38:05.831Z,101180.19
2024-01-08T18:40:54.399Z,101185.88
2024-01-08T18:43:43.094Z,101183.09
2024-01-08T18:46:33.096Z,101183.44
2024-01-08T18:49:21.835Z,101181.84
2024-01-08T18:52:10.569Z,101186.47
2024-01-08T18:54:59.145Z,101199.19
2024-01-08T18:57:48.133Z,101192.66
2024-01-08T19:00:38.524Z,101194.25
2024-01-08T19:03:29.031Z,101202.50
2024-01-08T19:06:17.700Z,101198.28
2024-01-08T19:09:07.257Z,101197.91
2024-01-08T19:11:56.886Z,101176.81
2024-01-08T19:14:45.767Z,101185.25
2024-01-08T19:17:35.142Z,101214.03
2024-01-08T19:20:27.212Z,101207.66
2024-01-08T19:23:16.451Z,101214.13
2024-01-08T19:26:08.508Z,101211.59
2024-01-08T19:28:58.976Z,101215.09
2024-01-08T19:31:47.749Z,101215.44
2024-01-08T19:34:36.356Z,101222.19
2024-01-08T19:37:26.329Z,101223.22
2024-01-08T19:40:14.942Z,101224.63
2024-01-08T19:43:03.921Z,101220.34
2024-01-08T19:45:52.556Z,101231.94
2024-01-08T19:48:41.216Z,101220.56
2024-01-08T19:51:29.897Z,101234.91
2024-01-08T19:54:19.888Z,101226.28
2024-01-08T19:57:09.851Z,101238.31
2024-01-08T19:59:58.541Z,101238.56
2024-01-08T20:02:47.096Z,101236.41
2024-01-08T20:05:35.744Z,101233.88
2024-01-08T20:08:24.375Z,101232.00
2024-01-08T20:11:16.455Z,101231.88
2024-01-08T20:14:05.225Z,101228.91
2024-01-08T20:16:53.852Z,101232.91
2024-01-08T20:19:42.441Z,101232.56
2024-01-08T20:22:31.186Z,101241.66
2024-01-08T20:25:22.417Z,101235.91
2024-01-08T20:28:14.334Z,101231.28
2024-01-08T20:31:02.965Z,101244.50
2024-01-08T20:33:53.108Z,101245.44
2024-01-08T20:36:41.969Z,101256.78
2024-01-08T20:39:34.847Z,101241.75
2024-01-08T20:42:23.476Z,101239.13
2024-01-08T20:45:13.425Z,101237.81
2024-01-08T20:48:02.015Z,101230.13
2024-01-08T20:50:50.760Z,101237.34
2024-01-08T20:53:39.467Z,101242.50
2024-01-08T20:56:28.127Z,101241.91
2024-01-08T20:59:16.821Z,101233.66
2024-01-08T21:02:06.898Z,101227.56
2024-01-08T21:04:55.953Z,101199.19
2024-01-08T21:07:44.647Z,101196.00
2024-01-08T21:10:33.297Z,101233.84
2024-01-08T21:13:22.205Z,101235.63
2024-01-08T21:16:11.033Z,101194.56
2024-01-08T21:19:03.957Z,101233.66
2024-01-08T21:21:54.520Z,101244.31
2024-01-08T21:24:43.216Z,101245.09
2024-01-08T21:27:31.859Z,101245.53
2024-01-08T21:30:20.887Z,101238.16
2024-01-08T21:33:09.719Z,101238.94
2024-01-08T21:35:59.669Z,101236.41
2024-01-08T21:38:48.265Z,101239.28
2024-01-08T21:41:37.599Z,101235.66
2024-01-08T21:44:26.242Z,101242.91
2024-01-08T21:47:14.881Z,101226.44
2024-01-08T21:50:05.246Z,101236.75
2024-01-08T21:52:55.226Z,101237.25
2024-01-08T21:55:43.924Z,101249.16
2024-01-08T21:58:32.426Z,101249.25
2024-01-08T22:01:21.052Z,101238.75
2024-01-08T22:04:11.584Z,101234.63
2024-01-08T22:07:00.204Z,101237.19
2024-01-08T22:09:50.182Z,101240.69
2024-01-08T22:12:42.250Z,101208.16
2024-01-08T22:15:32.491Z,101244.84
2024-01-08T22:18:21.191Z,101217.78
2024-01-08T22:21:09.768Z,101245.53
2024-01-08T22:23:58.555Z,101249.50
2024-01-08T22:26:48.625Z,101249.41
2024-01-08T22:29:37.414Z,101251.84
2024-01-08T22:32:26.157Z,101251.59
2024-01-08T22:35:14.867Z,101245.41
2024-01-08T22:38:04.019Z,101255.22
2024-01-08T22:40:52.824Z,101247.38
2024-01-08T22:43:42.688Z,101250.56
2024-01-08T22:46:31.306Z,101242.94
2024-01-08T22:49:19.905Z,101241.88
2024-01-08T22:52:09.297Z,101245.84
2024-01-08T22:54:57.961Z,101233.69
2024-01-08T22:57:46.511Z,101191.56
2024-01-08T23:00:36.505Z,101228.94
2024-01-08T23:03:25.202Z,101240.06
2024-01-08T23:06:13.871Z,101236.19
2024-01-08T23:09:02.827Z,101228.41
2024-01-08T23:11:51.490Z,101236.69
2024-01-08T23:14:40.180Z,101238.97
2024-01-08T23:17:30.279Z,101233.47
2024-01-08T23:20:19.258Z,101240.56
2024-01-08T23:23:07.847Z,101235.69
2024-01-08T23:25:56.460Z,101235.53
2024-01-08T23:28:45.000Z,101240.50
2024-01-08T23:31:33.556Z,101236.72
2024-01-08T23:34:23.695Z,101239.44
2024-01-08T23:37:12.301Z,101245.41
2024-01-08T23:40:00.854Z,101244.22
2024-01-08T23:42:49.492Z,101249.38
2024-01-08T23:45:40.194Z,101229.81
2024-01-08T23:48:29.055Z,101249.84
2024-01-08T23:51:18.990Z,101245.47
2024-01-08T23:54:07.701Z,101254.09
2024-01-08T23:56:56.726Z,101245.97
2024-01-08T23:59:45.521Z,101250.78
